PROFILE

 METAR AND TAF INFORMATION
ADDS - METARS form results

(0734 UTC 20 September 2020)
http://aviationweather.gov/metar/data/
 
LFBZ 200700Z AUTO 23005KT 200V270 9999 SCT040/// BKN046/// OVC056/// ///TCU 19/14 Q1015 TEMPO 4000 SHRA BKN008 BKN025TCU
TAF LFBZ 200500Z 2006/2106 23008KT 9999 BKN040 PROB30 TEMPO 2006/2106 4000 SHRA BKN008 BKN025TCU BECMG 2008/2010 29010KT BECMG 2020/2022 23006KT BKN014 

 AIRPORT MAP

 RUNWAY INFORMATION
Runway 09 Runway length 7382 ft Runway width 148 ft
Runway elevation 242 ft Runway displaced threshold 656 ft Runway heading 89
Runway 27 Runway length 7382 ft Runway width 148 ft
Runway elevation 219 ft Runway displaced threshold 0 ft Runway heading 269

 AIRPORT FREQUENCIES
Type APP Name BIARRITZ A Frequency 125.6 MHZ
Type ATIS Name ATIS Frequency 128.225 MHZ
Type GND Name BIARRITZ G Frequency 121.95 MHZ
Type TWR Name BIARRITZ T Frequency 118.7 MHZ

 AIRPORT NEAR NAVIGATION AIDS
Type VOR-DME Name Biarritz Frequency 114150 KHZ
Type NDB Name Biarritz Frequency 341 KHZ